createdAt,value
2018-03-07T00:01:43.643Z,98982.53
2018-03-07T00:06:46.160Z,98977.23
2018-03-07T00:11:48.649Z,98980.15
2018-03-07T00:16:51.136Z,98973.88
2018-03-07T00:21:53.605Z,98972.98
2018-03-07T00:26:56.057Z,98967.02
2018-03-07T00:31:58.515Z,98964.72
2018-03-07T00:37:01.675Z,98965.20
2018-03-07T00:42:04.189Z,98962.95
2018-03-07T00:47:06.649Z,98957.95
2018-03-07T00:52:09.141Z,98957.58
2018-03-07T00:57:11.625Z,98954.91
2018-03-07T01:02:14.098Z,98950.45
2018-03-07T01:07:16.600Z,98951.87
2018-03-07T01:12:19.048Z,98947.44
2018-03-07T01:17:21.512Z,98941.30
2018-03-07T01:22:24.555Z,98942.64
2018-03-07T01:27:27.047Z,98937.92
2018-03-07T01:32:29.690Z,98933.56
2018-03-07T01:37:32.281Z,98933.25
2018-03-07T01:42:34.750Z,98932.31
2018-03-07T01:47:37.248Z,98925.00
2018-03-07T01:52:41.341Z,98922.03
2018-03-07T01:57:43.798Z,98920.84
2018-03-07T02:02:46.269Z,98913.59
2018-03-07T02:07:48.738Z,98912.00
2018-03-07T02:12:51.185Z,98911.08
2018-03-07T02:17:53.652Z,98909.73
2018-03-07T02:22:56.125Z,98903.48
2018-03-07T02:27:58.600Z,98900.44
2018-03-07T02:33:01.061Z,98893.15
2018-03-07T02:38:03.537Z,98896.20
2018-03-07T02:43:06.005Z,98893.84
2018-03-07T02:48:08.487Z,98889.94
2018-03-07T02:53:10.978Z,98892.08
2018-03-07T02:58:13.477Z,98893.22
2018-03-07T03:03:15.970Z,98898.59
2018-03-07T03:08:18.443Z,98899.95
2018-03-07T03:13:20.919Z,98895.05
2018-03-07T03:18:23.390Z,98900.86
2018-03-07T03:23:25.853Z,98893.59
2018-03-07T03:28:28.324Z,98895.66
2018-03-07T03:33:30.777Z,98894.83
2018-03-07T03:38:34.183Z,98892.20
2018-03-07T03:43:36.637Z,98889.19
2018-03-07T03:48:39.101Z,98892.45
2018-03-07T03:53:41.807Z,98896.20
2018-03-07T03:58:44.271Z,98900.09
2018-03-07T04:03:46.751Z,98897.97
2018-03-07T04:08:49.215Z,98903.08
2018-03-07T04:13:51.699Z,98901.22
2018-03-07T04:18:54.176Z,98899.01
2018-03-07T04:23:56.633Z,98901.27
2018-03-07T04:28:59.103Z,98897.42
2018-03-07T04:34:01.572Z,98899.51
2018-03-07T04:39:04.043Z,98903.97
2018-03-07T04:44:06.512Z,98898.64
2018-03-07T04:49:09.002Z,98897.78
2018-03-07T04:54:11.486Z,98895.32
2018-03-07T04:59:14.019Z,98896.64
2018-03-07T05:04:17.776Z,98895.15
2018-03-07T05:09:20.398Z,98891.52
2018-03-07T05:14:22.881Z,98892.44
2018-03-07T05:19:25.339Z,98889.39
2018-03-07T05:24:27.873Z,98884.91
2018-03-07T05:29:30.293Z,98891.30
2018-03-07T05:34:32.827Z,98895.84
2018-03-07T05:39:35.402Z,98894.52
2018-03-07T05:44:37.866Z,98885.09
2018-03-07T05:49:40.330Z,98888.82
2018-03-07T05:54:42.822Z,98890.66
2018-03-07T05:59:45.330Z,98887.56
2018-03-07T06:04:47.853Z,98889.86
2018-03-07T06:09:50.353Z,98885.25
2018-03-07T06:14:53.679Z,98891.73
2018-03-07T06:19:56.194Z,98896.91
2018-03-07T06:24:59.004Z,98899.12
2018-03-07T06:30:01.490Z,98904.28
2018-03-07T06:35:04.344Z,98908.94
2018-03-07T06:40:06.981Z,98913.47
2018-03-07T06:45:09.439Z,98921.88
2018-03-07T06:50:11.914Z,98917.06
2018-03-07T06:55:14.527Z,98916.59
2018-03-07T07:00:17.092Z,98921.61
2018-03-07T07:05:19.603Z,98930.30
2018-03-07T07:10:22.107Z,98934.33
2018-03-07T07:15:24.585Z,98938.69
2018-03-07T07:20:27.084Z,98940.92
2018-03-07T07:25:29.577Z,98945.65
2018-03-07T07:30:32.065Z,98945.16
2018-03-07T07:35:34.553Z,98950.73
2018-03-07T07:40:37.060Z,98955.20
2018-03-07T07:45:39.520Z,98952.69
2018-03-07T07:50:42.076Z,98958.07
2018-03-07T07:55:44.567Z,98960.44
2018-03-07T08:00:47.103Z,98962.11
2018-03-07T08:05:49.670Z,98962.11
2018-03-07T08:10:52.134Z,98962.52
2018-03-07T08:15:54.585Z,98965.78
2018-03-07T08:20:57.054Z,98969.17
2018-03-07T08:25:59.534Z,98977.52
2018-03-07T08:31:01.994Z,98980.65
2018-03-07T08:36:04.473Z,98983.14
2018-03-07T08:41:06.940Z,98985.36
2018-03-07T08:46:09.404Z,98991.89
2018-03-07T08:51:11.881Z,98994.95
2018-03-07T08:56:15.499Z,98996.77
2018-03-07T09:01:17.984Z,98989.17
2018-03-07T09:06:20.444Z,98998.47
2018-03-07T09:11:22.890Z,99004.42
2018-03-07T09:16:25.344Z,99005.59
2018-03-07T09:21:27.818Z,99009.45
2018-03-07T09:26:30.453Z,99012.92
2018-03-07T09:31:32.926Z,99022.32
2018-03-07T09:36:35.383Z,99029.86
2018-03-07T09:41:37.874Z,99033.44
2018-03-07T09:46:40.341Z,99031.97
2018-03-07T09:51:42.836Z,99040.30
2018-03-07T09:56:45.449Z,99038.15
2018-03-07T10:01:47.934Z,99038.09
2018-03-07T10:06:50.377Z,99036.17
2018-03-07T10:11:52.859Z,99041.89
2018-03-07T10:16:55.301Z,99050.39
2018-03-07T10:21:57.795Z,99047.65
2018-03-07T10:27:00.271Z,99044.55
2018-03-07T10:32:02.783Z,99050.77
2018-03-07T10:37:05.243Z,99055.87
2018-03-07T10:42:07.733Z,99059.50
2018-03-07T10:47:10.211Z,99065.56
2018-03-07T10:52:12.685Z,99065.19
2018-03-07T10:57:15.162Z,99065.53
2018-03-07T11:02:17.660Z,99067.30
2018-03-07T11:07:20.182Z,99080.56
2018-03-07T11:12:22.637Z,99082.28
2018-03-07T11:17:25.085Z,99080.90
2018-03-07T11:22:27.571Z,99077.98
2018-03-07T11:27:30.028Z,99076.98
2018-03-07T11:32:32.525Z,99078.48
2018-03-07T11:37:34.976Z,99085.25
2018-03-07T11:42:37.437Z,99086.30
2018-03-07T11:47:39.896Z,99089.27
2018-03-07T11:52:42.383Z,99089.16
2018-03-07T11:57:44.877Z,99092.48
2018-03-07T12:02:47.354Z,99091.27
2018-03-07T12:07:49.831Z,99095.89
2018-03-07T12:12:52.287Z,99095.88
2018-03-07T12:17:54.753Z,99098.22
2018-03-07T12:22:57.224Z,99096.78
2018-03-07T12:27:59.682Z,99099.22
2018-03-07T12:33:02.159Z,99101.71
2018-03-07T12:38:04.633Z,99098.65
2018-03-07T12:43:07.078Z,99100.08
2018-03-07T12:48:09.554Z,99097.14
2018-03-07T12:53:12.174Z,99101.47
2018-03-07T12:58:14.668Z,99101.05
2018-03-07T13:03:17.141Z,99103.28
2018-03-07T13:08:19.610Z,99105.28
2018-03-07T13:13:22.057Z,99110.48
2018-03-07T13:18:24.510Z,99119.48
2018-03-07T13:23:26.996Z,99126.02
2018-03-07T13:28:29.485Z,99123.02
2018-03-07T13:33:31.990Z,99133.39
2018-03-07T13:38:34.446Z,99139.89
2018-03-07T13:43:36.940Z,99147.70
2018-03-07T13:48:39.414Z,99145.77
2018-03-07T13:53:42.082Z,99154.22
2018-03-07T13:58:44.544Z,99167.30
2018-03-07T14:03:47.053Z,99168.86
2018-03-07T14:08:49.517Z,99177.70
2018-03-07T14:13:52.010Z,99174.72
2018-03-07T14:18:54.570Z,99176.91
2018-03-07T14:23:57.026Z,99186.23
2018-03-07T14:28:59.477Z,99185.25
2018-03-07T14:34:01.957Z,99178.45
2018-03-07T14:39:04.439Z,99184.16
2018-03-07T14:44:06.909Z,99195.23
2018-03-07T14:49:09.393Z,99198.22
2018-03-07T14:54:11.902Z,99201.85
2018-03-07T14:59:14.392Z,99205.28
2018-03-07T15:04:17.028Z,99210.80
2018-03-07T15:09:19.501Z,99213.79
2018-03-07T15:14:22.410Z,99212.12
2018-03-07T15:19:34.166Z,99216.17
2018-03-07T15:24:44.611Z,99222.30
2018-03-07T15:29:57.805Z,99233.53
2018-03-07T15:35:07.590Z,99236.51
2018-03-07T15:40:10.916Z,99235.00
2018-03-07T15:45:18.128Z,99245.14
2018-03-07T15:50:21.144Z,99242.51
2018-03-07T15:55:23.814Z,99246.86
2018-03-07T16:00:26.312Z,99251.98
2018-03-07T16:05:28.807Z,99264.23
2018-03-07T16:10:31.322Z,99259.50
2018-03-07T16:15:33.789Z,99267.47
2018-03-07T16:20:36.274Z,99275.95
2018-03-07T16:25:38.734Z,99281.69
2018-03-07T16:30:41.201Z,99275.15
2018-03-07T16:35:43.777Z,99288.44
2018-03-07T16:40:46.311Z,99287.88
2018-03-07T16:45:48.802Z,99296.00
2018-03-07T16:50:51.323Z,99291.19
2018-03-07T16:55:53.787Z,99290.39
2018-03-07T17:00:56.280Z,99290.55
2018-03-07T17:05:58.730Z,99293.48
2018-03-07T17:11:01.237Z,99300.06
2018-03-07T17:16:03.706Z,99311.73
2018-03-07T17:21:06.189Z,99316.53
2018-03-07T17:26:08.701Z,99320.31
2018-03-07T17:31:11.167Z,99314.57
2018-03-07T17:36:13.706Z,99328.27
2018-03-07T17:41:16.248Z,99328.76
2018-03-07T17:46:18.738Z,99336.34
2018-03-07T17:51:21.242Z,99339.77
2018-03-07T17:56:23.742Z,99341.98
2018-03-07T18:01:26.186Z,99338.91
2018-03-07T18:06:28.855Z,99344.32
2018-03-07T18:11:31.836Z,99353.60
2018-03-07T18:16:34.334Z,99363.58
2018-03-07T18:21:36.823Z,99362.39
2018-03-07T18:26:39.308Z,99362.72
2018-03-07T18:31:41.818Z,99354.66
2018-03-07T18:36:44.311Z,99374.84
2018-03-07T18:41:46.826Z,99383.19
2018-03-07T18:46:49.330Z,99390.65
2018-03-07T18:51:52.466Z,99386.31
2018-03-07T18:56:56.379Z,99382.25
2018-03-07T19:01:58.835Z,99388.78
2018-03-07T19:07:01.299Z,99383.47
2018-03-07T19:12:03.802Z,99388.33
2018-03-07T19:17:06.262Z,99395.28
2018-03-07T19:22:08.767Z,99403.23
2018-03-07T19:27:11.276Z,99408.56
2018-03-07T19:32:14.491Z,99412.18
2018-03-07T19:37:17.018Z,99420.50
2018-03-07T19:42:19.486Z,99424.05
2018-03-07T19:47:21.949Z,99419.72
2018-03-07T19:52:24.417Z,99430.87
2018-03-07T19:57:26.873Z,99428.20
2018-03-07T20:02:29.347Z,99434.71
2018-03-07T20:07:31.832Z,99439.56
2018-03-07T20:12:34.283Z,99441.90
2018-03-07T20:17:36.740Z,99448.95
2018-03-07T20:22:39.214Z,99453.92
2018-03-07T20:27:41.765Z,99446.36
2018-03-07T20:32:44.455Z,99455.06
2018-03-07T20:37:47.955Z,99453.47
2018-03-07T20:42:50.501Z,99467.14
2018-03-07T20:47:52.994Z,99469.81
2018-03-07T20:52:55.471Z,99475.77
2018-03-07T20:57:57.934Z,99482.78
2018-03-07T21:03:00.394Z,99488.03
2018-03-07T21:08:02.866Z,99489.84
2018-03-07T21:13:05.309Z,99495.71
2018-03-07T21:18:07.784Z,99483.66
2018-03-07T21:23:10.279Z,99497.13
2018-03-07T21:28:12.792Z,99494.77
2018-03-07T21:33:15.294Z,99496.58
2018-03-07T21:38:17.804Z,99501.41
2018-03-07T21:43:20.295Z,99517.30
2018-03-07T21:48:22.803Z,99513.59
2018-03-07T21:53:25.287Z,99519.88
2018-03-07T21:58:27.768Z,99508.94
2018-03-07T22:03:30.242Z,99510.48
2018-03-07T22:08:32.723Z,99512.86
2018-03-07T22:13:35.291Z,99523.47
2018-03-07T22:18:37.747Z,99531.72
2018-03-07T22:23:40.196Z,99517.61
2018-03-07T22:28:42.695Z,99523.80
2018-03-07T22:33:45.215Z,99520.58
2018-03-07T22:38:47.700Z,99530.02
2018-03-07T22:43:50.221Z,99542.33
2018-03-07T22:48:52.708Z,99541.08
2018-03-07T22:53:55.183Z,99544.66
2018-03-07T22:58:57.647Z,99550.47
2018-03-07T23:04:00.114Z,99552.17
2018-03-07T23:09:02.612Z,99562.20
2018-03-07T23:14:05.084Z,99565.44
2018-03-07T23:19:07.578Z,99570.50
2018-03-07T23:24:10.031Z,99583.09
2018-03-07T23:29:12.510Z,99587.00
2018-03-07T23:34:15.024Z,99580.39
2018-03-07T23:39:17.492Z,99584.44
2018-03-07T23:44:20.003Z,99577.13
2018-03-07T23:49:22.524Z,99579.00
2018-03-07T23:54:24.999Z,99582.47
2018-03-07T23:59:27.437Z,99582.06
